createdAt,value
2023-03-16T00:00:33.459Z,101651.13
2023-03-16T00:03:36.825Z,101647.63
2023-03-16T00:07:09.010Z,101651.13
2023-03-16T00:10:13.324Z,101655.50
2023-03-16T00:13:18.688Z,101658.94
2023-03-16T00:16:21.335Z,101657.13
2023-03-16T00:19:24.044Z,101658.06
2023-03-16T00:22:28.518Z,101669.44
2023-03-16T00:25:33.457Z,101662.56
2023-03-16T00:28:37.860Z,101666.00
2023-03-16T00:31:43.970Z,101672.06
2023-03-16T00:34:48.024Z,101673.72
2023-03-16T00:37:50.687Z,101670.31
2023-03-16T00:40:53.422Z,101674.69
2023-03-16T00:43:57.347Z,101669.50
2023-03-16T00:46:59.956Z,101668.63
2023-03-16T00:50:02.926Z,101667.75
2023-03-16T00:53:06.190Z,101666.00
2023-03-16T00:56:09.610Z,101666.06
2023-03-16T00:59:13.683Z,101666.91
2023-03-16T01:02:19.864Z,101661.63
2023-03-16T01:05:22.593Z,101662.50
2023-03-16T01:08:25.523Z,101664.25
2023-03-16T01:11:28.142Z,101665.91
2023-03-16T01:14:32.154Z,101669.41
2023-03-16T01:17:35.413Z,101658.97
2023-03-16T01:20:38.050Z,101663.28
2023-03-16T01:23:41.446Z,101654.50
2023-03-16T01:26:45.062Z,101647.50
2023-03-16T01:29:49.036Z,101644.91
2023-03-16T01:32:51.631Z,101644.03
2023-03-16T01:35:55.023Z,101644.81
2023-03-16T01:38:57.778Z,101646.47
2023-03-16T01:42:00.381Z,101641.16
2023-03-16T01:45:06.263Z,101644.69
2023-03-16T01:48:09.314Z,101641.06
2023-03-16T01:51:16.585Z,101642.91
2023-03-16T01:54:25.184Z,101643.56
2023-03-16T01:57:32.492Z,101643.56
2023-03-16T02:00:36.737Z,101641.06
2023-03-16T02:03:40.096Z,101648.09
2023-03-16T02:06:44.468Z,101642.75
2023-03-16T02:09:51.619Z,101641.78
2023-03-16T02:12:54.928Z,101650.47
2023-03-16T02:15:59.370Z,101640.75
2023-03-16T02:19:02.173Z,101639.84
2023-03-16T02:22:08.369Z,101640.81
2023-03-16T02:25:12.184Z,101639.09
2023-03-16T02:28:21.826Z,101648.63
2023-03-16T02:31:25.863Z,101640.03
2023-03-16T02:34:29.710Z,101644.25
2023-03-16T02:37:33.793Z,101630.44
2023-03-16T02:40:38.618Z,101631.22
2023-03-16T02:43:44.831Z,101626.94
2023-03-16T02:46:49.474Z,101620.78
2023-03-16T02:49:52.275Z,101618.16
2023-03-16T02:52:54.837Z,101621.72
2023-03-16T02:55:57.679Z,101623.34
2023-03-16T02:59:00.283Z,101620.78
2023-03-16T03:02:04.513Z,101621.53
2023-03-16T03:05:07.988Z,101625.09
2023-03-16T03:08:10.593Z,101624.97
2023-03-16T03:11:13.188Z,101624.22
2023-03-16T03:14:16.617Z,101625.09
2023-03-16T03:17:20.631Z,101623.44
2023-03-16T03:20:23.216Z,101620.59
2023-03-16T03:23:25.887Z,101624.94
2023-03-16T03:26:29.217Z,101642.56
2023-03-16T03:29:34.584Z,101645.19
2023-03-16T03:32:38.657Z,101649.41
2023-03-16T03:35:42.023Z,101642.38
2023-03-16T03:38:45.234Z,101637.00
2023-03-16T03:41:47.828Z,101640.56
2023-03-16T03:44:51.049Z,101635.41
2023-03-16T03:47:56.099Z,101636.28
2023-03-16T03:50:59.075Z,101635.28
2023-03-16T03:54:01.715Z,101630.03
2023-03-16T03:57:04.335Z,101635.47
2023-03-16T04:00:11.281Z,101641.56
2023-03-16T04:03:16.221Z,101642.31
2023-03-16T04:06:18.848Z,101638.13
2023-03-16T04:09:21.437Z,101639.75
2023-03-16T04:12:24.915Z,101632.84
2023-03-16T04:15:27.732Z,101634.78
2023-03-16T04:18:38.484Z,101632.97
2023-03-16T04:21:41.278Z,101638.28
2023-03-16T04:24:44.601Z,101639.13
2023-03-16T04:27:47.203Z,101640.06
2023-03-16T04:30:49.819Z,101639.09
2023-03-16T04:33:54.709Z,101628.56
2023-03-16T04:36:57.413Z,101622.53
2023-03-16T04:40:00.071Z,101626.94
2023-03-16T04:43:02.675Z,101626.13
2023-03-16T04:46:06.286Z,101626.06
2023-03-16T04:49:10.705Z,101625.28
2023-03-16T04:52:13.600Z,101635.66
2023-03-16T04:55:16.317Z,101643.50
2023-03-16T04:58:18.901Z,101631.19
2023-03-16T05:01:21.984Z,101628.63
2023-03-16T05:04:25.966Z,101632.16
2023-03-16T05:07:28.872Z,101630.44
2023-03-16T05:10:31.452Z,101632.19
2023-03-16T05:13:34.065Z,101629.50
2023-03-16T05:16:36.703Z,101621.84
2023-03-16T05:19:40.636Z,101623.63
2023-03-16T05:22:45.167Z,101621.13
2023-03-16T05:25:48.518Z,101607.22
2023-03-16T05:28:51.082Z,101615.22
2023-03-16T05:31:54.063Z,101617.00
2023-03-16T05:34:58.531Z,101617.06
2023-03-16T05:38:01.165Z,101607.47
2023-03-16T05:41:06.050Z,101616.03
2023-03-16T05:44:09.232Z,101618.81
2023-03-16T05:47:12.028Z,101631.06
2023-03-16T05:50:17.825Z,101643.41
2023-03-16T05:53:20.652Z,101645.19
2023-03-16T05:56:24.705Z,101645.19
2023-03-16T05:59:27.308Z,101649.63
2023-03-16T06:02:29.942Z,101647.00
2023-03-16T06:05:33.916Z,101644.38
2023-03-16T06:08:36.481Z,101646.28
2023-03-16T06:11:39.119Z,101643.59
2023-03-16T06:14:42.043Z,101651.47
2023-03-16T06:17:44.646Z,101642.84
2023-03-16T06:20:48.612Z,101647.25
2023-03-16T06:23:51.646Z,101649.03
2023-03-16T06:26:54.219Z,101650.81
2023-03-16T06:29:56.787Z,101641.97
2023-03-16T06:33:00.173Z,101645.56
2023-03-16T06:36:04.307Z,101650.78
2023-03-16T06:39:07.210Z,101656.94
2023-03-16T06:42:09.797Z,101667.47
2023-03-16T06:45:12.984Z,101669.28
2023-03-16T06:48:15.730Z,101673.69
2023-03-16T06:51:19.726Z,101668.41
2023-03-16T06:54:22.342Z,101677.22
2023-03-16T06:57:25.118Z,101679.81
2023-03-16T07:00:28.185Z,101673.75
2023-03-16T07:03:31.305Z,101676.38
2023-03-16T07:06:35.233Z,101672.00
2023-03-16T07:09:40.318Z,101678.09
2023-03-16T07:12:44.108Z,101673.75
2023-03-16T07:15:46.675Z,101672.03
2023-03-16T07:18:49.294Z,101673.75
2023-03-16T07:21:53.228Z,101684.25
2023-03-16T07:24:57.448Z,101685.16
2023-03-16T07:28:00.135Z,101680.75
2023-03-16T07:31:04.311Z,101679.00
2023-03-16T07:34:07.608Z,101690.41
2023-03-16T07:37:11.848Z,101673.75
2023-03-16T07:40:15.507Z,101684.25
2023-03-16T07:43:18.063Z,101679.88
2023-03-16T07:46:20.925Z,101680.72
2023-03-16T07:49:23.651Z,101685.13
2023-03-16T07:52:28.213Z,101688.63
2023-03-16T07:55:31.626Z,101687.75
2023-03-16T07:58:35.023Z,101686.84
2023-03-16T08:01:37.648Z,101691.22
2023-03-16T08:04:42.380Z,101685.13
2023-03-16T08:07:46.297Z,101698.22
2023-03-16T08:10:49.884Z,101695.50
2023-03-16T08:13:54.341Z,101700.78
2023-03-16T08:16:56.930Z,101690.19
2023-03-16T08:19:59.640Z,101695.41
2023-03-16T08:23:03.630Z,101691.81
2023-03-16T08:26:08.675Z,101689.03
2023-03-16T08:29:11.398Z,101702.19
2023-03-16T08:32:14.437Z,101701.13
2023-03-16T08:35:17.491Z,101696.78
2023-03-16T08:38:21.432Z,101693.25
2023-03-16T08:41:24.427Z,101691.66
2023-03-16T08:44:27.512Z,101683.59
2023-03-16T08:47:30.947Z,101694.03
2023-03-16T08:50:33.537Z,101683.28
2023-03-16T08:53:37.701Z,101684.19
2023-03-16T08:56:40.296Z,101683.97
2023-03-16T08:59:44.673Z,101686.72
2023-03-16T09:02:48.457Z,101689.88
2023-03-16T09:05:51.233Z,101684.22
2023-03-16T09:08:56.043Z,101691.13
2023-03-16T09:11:58.907Z,101687.41
2023-03-16T09:15:01.849Z,101683.00
2023-03-16T09:18:05.582Z,101679.66
2023-03-16T09:21:10.448Z,101681.13
2023-03-16T09:24:14.388Z,101669.88
2023-03-16T09:27:17.339Z,101667.56
2023-03-16T09:30:20.654Z,101672.47
2023-03-16T09:33:24.222Z,101666.53
2023-03-16T09:36:27.358Z,101659.06
2023-03-16T09:39:31.353Z,101662.34
2023-03-16T09:42:37.579Z,101653.34
2023-03-16T09:45:48.664Z,101647.59
2023-03-16T09:48:51.364Z,101655.13
2023-03-16T09:52:00.564Z,101643.53
2023-03-16T09:55:08.767Z,101642.03
2023-03-16T09:58:17.398Z,101638.31
2023-03-16T10:01:27.686Z,101636.69
2023-03-16T10:04:43.834Z,101635.22
2023-03-16T10:07:56.883Z,101644.69
2023-03-16T10:11:23.963Z,101640.13
2023-03-16T10:14:33.134Z,101635.78
2023-03-16T10:17:40.184Z,101634.44
2023-03-16T10:20:45.387Z,101629.81
2023-03-16T10:23:50.235Z,101624.00
2023-03-16T10:27:00.059Z,101625.47
2023-03-16T10:30:04.890Z,101627.31
2023-03-16T10:33:20.019Z,101619.56
2023-03-16T10:36:30.501Z,101615.94
2023-03-16T10:39:42.779Z,101623.00
2023-03-16T10:42:46.855Z,101618.03
2023-03-16T10:45:49.905Z,101615.41
2023-03-16T10:48:54.638Z,101622.19
2023-03-16T10:51:59.591Z,101618.03
2023-03-16T10:55:08.709Z,101595.81
2023-03-16T10:58:25.137Z,101592.31
2023-03-16T11:01:30.015Z,101594.75
2023-03-16T11:04:33.250Z,101594.44
2023-03-16T11:07:37.131Z,101580.53
2023-03-16T11:10:54.579Z,101583.66
2023-03-16T11:14:01.272Z,101582.34
2023-03-16T11:17:09.384Z,101579.63
2023-03-16T11:20:17.848Z,101586.91
2023-03-16T11:23:28.504Z,101564.69
2023-03-16T11:26:35.049Z,101558.06
2023-03-16T11:29:47.832Z,101555.72
2023-03-16T11:32:53.346Z,101551.28
2023-03-16T11:36:09.581Z,101553.50
2023-03-16T11:39:26.138Z,101549.81
2023-03-16T11:42:34.465Z,101549.28
2023-03-16T11:45:45.571Z,101552.63
2023-03-16T11:49:02.677Z,101551.50
2023-03-16T11:52:12.781Z,101542.63
2023-03-16T11:55:25.572Z,101541.78
2023-03-16T11:58:41.578Z,101526.19
2023-03-16T12:02:01.235Z,101526.50
2023-03-16T12:05:24.384Z,101520.47
2023-03-16T12:08:50.810Z,101510.72
2023-03-16T12:11:58.785Z,101498.78
2023-03-16T12:15:18.121Z,101497.38
2023-03-16T12:18:27.928Z,101494.94
2023-03-16T12:21:34.969Z,101495.19
2023-03-16T12:24:43.470Z,101488.50
2023-03-16T12:27:48.629Z,101493.19
2023-03-16T12:30:59.340Z,101496.44
2023-03-16T12:34:11.072Z,101482.00
2023-03-16T12:37:23.465Z,101482.00
2023-03-16T12:40:39.494Z,101472.31
2023-03-16T12:43:53.863Z,101475.34
2023-03-16T12:47:00.870Z,101469.56
2023-03-16T12:50:11.196Z,101450.56
2023-03-16T12:53:27.000Z,101445.31
2023-03-16T12:56:32.002Z,101438.88
2023-03-16T12:59:41.658Z,101435.13
2023-03-16T13:02:50.680Z,101445.25
2023-03-16T13:05:58.503Z,101440.50
2023-03-16T13:09:01.545Z,101425.56
2023-03-16T13:12:05.430Z,101417.84
2023-03-16T13:15:26.866Z,101422.00
2023-03-16T13:18:36.082Z,101416.22
2023-03-16T13:21:42.778Z,101402.81
2023-03-16T13:24:51.765Z,101399.91
2023-03-16T13:27:56.451Z,101394.34
2023-03-16T13:30:59.477Z,101388.50
2023-03-16T13:34:03.673Z,101397.19
2023-03-16T13:37:15.400Z,101392.16
2023-03-16T13:40:21.542Z,101391.34
2023-03-16T13:43:27.826Z,101387.31
2023-03-16T13:46:31.668Z,101387.72
2023-03-16T13:49:34.777Z,101383.00
2023-03-16T13:52:39.116Z,101383.63
2023-03-16T13:55:41.791Z,101372.59
2023-03-16T13:58:48.332Z,101377.78
2023-03-16T14:01:57.964Z,101370.47
2023-03-16T14:05:11.580Z,101362.19
2023-03-16T14:08:19.504Z,101363.44
2023-03-16T14:11:22.426Z,101359.16
2023-03-16T14:14:28.797Z,101357.47
2023-03-16T14:17:31.892Z,101349.72
2023-03-16T14:20:40.930Z,101356.53
2023-03-16T14:23:47.295Z,101348.06
2023-03-16T14:26:49.868Z,101355.72
2023-03-16T14:29:57.506Z,101351.28
2023-03-16T14:33:02.238Z,101351.94
2023-03-16T14:36:12.832Z,101329.28
2023-03-16T14:39:21.980Z,101328.03
2023-03-16T14:42:29.265Z,101327.53
2023-03-16T14:45:35.025Z,101324.78
2023-03-16T14:48:39.219Z,101320.88
2023-03-16T14:51:42.045Z,101310.72
2023-03-16T14:54:46.590Z,101310.06
2023-03-16T14:57:51.219Z,101304.97
2023-03-16T15:00:54.941Z,101293.88
2023-03-16T15:03:57.929Z,101289.97
2023-03-16T15:07:01.445Z,101274.28
2023-03-16T15:10:10.609Z,101273.56
2023-03-16T15:13:24.447Z,101269.97
2023-03-16T15:16:27.938Z,101266.72
2023-03-16T15:19:30.533Z,101268.16
2023-03-16T15:22:36.791Z,101265.81
2023-03-16T15:25:43.468Z,101264.47
2023-03-16T15:28:46.221Z,101266.44
2023-03-16T15:31:48.966Z,101263.47
2023-03-16T15:34:51.572Z,101262.41
2023-03-16T15:37:54.242Z,101257.19
2023-03-16T15:40:58.240Z,101247.47
2023-03-16T15:44:03.232Z,101247.00
2023-03-16T15:47:06.096Z,101242.28
2023-03-16T15:50:11.221Z,101244.19
2023-03-16T15:53:29.992Z,101244.41
2023-03-16T15:56:47.493Z,101244.84
2023-03-16T15:59:54.604Z,101240.16
2023-03-16T16:02:58.874Z,101233.00
2023-03-16T16:06:02.506Z,101241.75
2023-03-16T16:09:05.381Z,101230.31
2023-03-16T16:12:14.821Z,101236.66
2023-03-16T16:15:25.469Z,101233.53
2023-03-16T16:18:31.824Z,101230.13
2023-03-16T16:21:34.992Z,101225.31
2023-03-16T16:24:37.906Z,101214.91
2023-03-16T16:27:42.184Z,101226.22
2023-03-16T16:30:45.298Z,101224.84
2023-03-16T16:33:48.007Z,101232.56
2023-03-16T16:36:51.175Z,101231.31
2023-03-16T16:39:53.776Z,101234.06
2023-03-16T16:42:58.197Z,101232.28
2023-03-16T16:46:04.256Z,101236.28
2023-03-16T16:49:13.235Z,101226.06
2023-03-16T16:52:18.327Z,101231.72
2023-03-16T16:55:22.301Z,101227.47
2023-03-16T16:58:26.412Z,101216.31
2023-03-16T17:01:32.867Z,101224.38
2023-03-16T17:04:35.660Z,101215.28
2023-03-16T17:07:39.072Z,101216.16
2023-03-16T17:10:41.678Z,101217.34
2023-03-16T17:13:46.849Z,101219.88
2023-03-16T17:16:50.457Z,101207.66
2023-03-16T17:19:53.201Z,101194.69
2023-03-16T17:22:55.808Z,101195.88
2023-03-16T17:26:01.901Z,101194.53
2023-03-16T17:29:11.392Z,101199.72
2023-03-16T17:32:19.882Z,101203.50
2023-03-16T17:35:24.923Z,101207.69
2023-03-16T17:38:27.482Z,101204.22
2023-03-16T17:41:33.091Z,101222.28
2023-03-16T17:44:40.768Z,101215.06
2023-03-16T17:47:43.404Z,101206.75
2023-03-16T17:50:46.678Z,101212.97
2023-03-16T17:53:49.656Z,101221.31
2023-03-16T17:56:53.841Z,101223.16
2023-03-16T17:59:58.410Z,101223.09
2023-03-16T18:03:02.655Z,101213.91
2023-03-16T18:06:05.671Z,101190.72
2023-03-16T18:09:09.724Z,101190.78
2023-03-16T18:12:12.437Z,101178.69
2023-03-16T18:15:19.238Z,101179.44
2023-03-16T18:18:24.054Z,101167.84
2023-03-16T18:21:28.024Z,101176.19
2023-03-16T18:24:30.635Z,101186.50
2023-03-16T18:27:34.496Z,101172.31
2023-03-16T18:30:40.008Z,101175.94
2023-03-16T18:33:45.564Z,101174.31
2023-03-16T18:36:48.177Z,101157.09
2023-03-16T18:39:51.648Z,101150.50
2023-03-16T18:42:55.039Z,101141.31
2023-03-16T18:45:59.008Z,101154.47
2023-03-16T18:49:04.083Z,101148.53
2023-03-16T18:52:16.635Z,101152.69
2023-03-16T18:55:21.036Z,101156.25
2023-03-16T18:58:25.242Z,101158.25
2023-03-16T19:01:31.626Z,101153.56
2023-03-16T19:04:34.941Z,101145.78
2023-03-16T19:07:39.438Z,101146.47
2023-03-16T19:10:46.972Z,101143.63
2023-03-16T19:13:49.609Z,101133.09
2023-03-16T19:16:55.275Z,101136.25
2023-03-16T19:19:57.880Z,101140.38
2023-03-16T19:23:03.578Z,101120.13
2023-03-16T19:26:06.398Z,101124.53
2023-03-16T19:29:13.916Z,101118.22
2023-03-16T19:32:19.937Z,101125.19
2023-03-16T19:35:33.161Z,101131.22
2023-03-16T19:38:46.160Z,101123.50
2023-03-16T19:41:57.024Z,101117.13
2023-03-16T19:44:59.847Z,101115.63
2023-03-16T19:48:03.788Z,101107.00
2023-03-16T19:51:06.768Z,101105.66
2023-03-16T19:54:20.792Z,101098.09
2023-03-16T19:57:23.933Z,101083.81
2023-03-16T20:00:27.012Z,101077.34
2023-03-16T20:03:34.303Z,101081.00
2023-03-16T20:06:36.934Z,101089.09
2023-03-16T20:09:39.531Z,101091.25
2023-03-16T20:12:42.873Z,101098.03
2023-03-16T20:15:45.975Z,101094.16
2023-03-16T20:18:54.730Z,101087.22
2023-03-16T20:21:57.338Z,101086.06
2023-03-16T20:25:02.052Z,101082.41
2023-03-16T20:28:05.237Z,101074.16
2023-03-16T20:31:17.440Z,101070.81
2023-03-16T20:34:24.017Z,101064.94
2023-03-16T20:37:28.677Z,101070.13
2023-03-16T20:40:31.747Z,101053.81
2023-03-16T20:43:34.357Z,101058.25
2023-03-16T20:46:38.686Z,101055.09
2023-03-16T20:49:43.448Z,101044.47
2023-03-16T20:52:46.025Z,101047.00
2023-03-16T20:55:48.994Z,101037.81
2023-03-16T20:58:55.833Z,101028.09
2023-03-16T21:01:58.401Z,101038.06
2023-03-16T21:05:04.888Z,101025.88
2023-03-16T21:08:08.145Z,101022.88
2023-03-16T21:11:21.441Z,101020.44
2023-03-16T21:14:25.263Z,101016.50
2023-03-16T21:17:30.771Z,101012.59
2023-03-16T21:20:36.552Z,101014.88
2023-03-16T21:23:39.155Z,101002.16
2023-03-16T21:26:43.754Z,100999.22
2023-03-16T21:29:47.158Z,101002.78
2023-03-16T21:32:49.925Z,100994.97
2023-03-16T21:35:53.981Z,100988.06
2023-03-16T21:38:57.036Z,100981.06
2023-03-16T21:41:59.607Z,100975.50
2023-03-16T21:45:02.497Z,100971.56
2023-03-16T21:48:05.974Z,100975.59
2023-03-16T21:51:14.521Z,100979.91
2023-03-16T21:54:18.172Z,100982.38
2023-03-16T21:57:21.191Z,100968.97
2023-03-16T22:00:25.614Z,100972.91
2023-03-16T22:03:44.256Z,100975.34
2023-03-16T22:06:53.715Z,100983.44
2023-03-16T22:09:56.283Z,100970.25
2023-03-16T22:12:59.472Z,100959.66
2023-03-16T22:16:02.177Z,100958.25
2023-03-16T22:19:05.837Z,100952.16
2023-03-16T22:22:16.807Z,100951.84
2023-03-16T22:25:21.521Z,100963.84
2023-03-16T22:28:25.337Z,100958.22
2023-03-16T22:31:32.757Z,100951.84
2023-03-16T22:34:42.901Z,100951.91
2023-03-16T22:37:46.913Z,100956.38
2023-03-16T22:40:49.675Z,100953.03
2023-03-16T22:43:52.843Z,100951.47
2023-03-16T22:46:55.832Z,100955.84
2023-03-16T22:49:58.625Z,100947.09
2023-03-16T22:53:06.574Z,100942.31
2023-03-16T22:56:11.073Z,100940.91
2023-03-16T22:59:16.154Z,100932.88
2023-03-16T23:02:22.099Z,100935.44
2023-03-16T23:05:26.991Z,100924.41
2023-03-16T23:08:30.958Z,100918.59
2023-03-16T23:11:36.353Z,100904.66
2023-03-16T23:14:39.396Z,100907.81
2023-03-16T23:17:42.200Z,100911.28
2023-03-16T23:20:46.152Z,100906.25
2023-03-16T23:24:02.959Z,100903.38
2023-03-16T23:27:15.485Z,100888.66
2023-03-16T23:30:21.939Z,100892.69
2023-03-16T23:33:24.536Z,100877.72
2023-03-16T23:36:27.490Z,100884.88
2023-03-16T23:39:31.538Z,100886.72
2023-03-16T23:42:34.252Z,100865.91
2023-03-16T23:45:41.621Z,100872.09
2023-03-16T23:48:45.792Z,100867.31
2023-03-16T23:51:48.548Z,100877.13
2023-03-16T23:54:52.592Z,100871.97
2023-03-16T23:57:55.700Z,100872.94
